Time;durP1;ratioP1;P1;durP2;ratioP2;P2;SDS_P1;SDS_P2;PMS_P1;PMS_P2;Temp;Humidity;BMP_temperature;BMP_pressure;BME280_temperature;BME280_humidity;BME280_pressure;Samples;Min_cycle;Max_cycle;Signal;HPM_P1;HPM_P2
2023/06/20 00:00:42;;;;;;;7.00;6.27;;;;;;;23.68;72.57;98771.47;7209956;40;20431;31
2023/06/20 00:06:00;;;;;;;7.60;6.70;;;;;;;23.63;72.74;98770.59;7248090;40;21447;31
2023/06/20 00:16:40;;;;;;;8.30;7.45;;;;;;;23.38;75.09;98746.41;7273736;40;20269;31
2023/06/20 00:27:05;;;;;;;8.28;7.50;;;;;;;23.14;75.88;98761.53;7299942;39;20335;31
2023/06/20 00:32:53;;;;;;;7.90;7.12;;;;;;;23.18;75.87;98757.19;7279213;39;20257;31
2023/06/20 00:43:32;;;;;;;7.60;6.80;;;;;;;23.36;74.93;98776.91;7252956;40;20264;31
2023/06/20 00:49:08;;;;;;;7.95;7.15;;;;;;;23.48;75.72;98775.94;7237779;40;20324;31
2023/06/20 00:54:44;;;;;;;9.00;8.10;;;;;;;23.35;74.64;98774.41;7226840;40;20238;31
2023/06/20 01:00:11;;;;;;;8.00;7.30;;;;;;;23.45;74.72;98768.22;7220958;40;20421;31
2023/06/20 01:05:41;;;;;;;8.13;7.43;;;;;;;23.50;74.73;98768.28;7240380;40;20250;31
2023/06/20 01:11:15;;;;;;;8.26;7.44;;;;;;;23.56;74.65;98794.75;7226003;40;20334;31
2023/06/20 01:16:50;;;;;;;7.85;7.05;;;;;;;23.57;74.25;98799.16;7279371;40;20256;31
2023/06/20 01:22:27;;;;;;;7.45;6.75;;;;;;;23.60;74.40;98798.66;7242782;40;21530;31
2023/06/20 01:28:04;;;;;;;8.08;7.36;;;;;;;23.59;74.67;98813.50;7304747;39;20248;31
2023/06/20 01:33:39;;;;;;;7.20;6.60;;;;;;;23.51;74.40;98808.47;7321719;39;21462;31
2023/06/20 01:39:14;;;;;;;7.90;6.45;;;;;;;23.49;76.11;98824.38;7311765;39;20385;31
2023/06/20 01:44:50;;;;;;;8.00;7.30;;;;;;;23.15;76.54;98820.94;7277508;39;20391;31
2023/06/20 01:50:26;;;;;;;8.00;7.30;;;;;;;23.01;77.06;98815.00;7255837;40;20237;31
2023/06/20 01:55:58;;;;;;;8.85;7.97;;;;;;;22.99;77.42;98814.44;7021232;40;21203;31
2023/06/20 02:07:34;;;;;;;8.00;7.30;;;;;;;23.13;76.76;98818.44;7218940;40;20277;31
2023/06/20 02:18:13;;;;;;;8.66;7.76;;;;;;;23.22;74.98;98800.41;7250311;40;20480;31
2023/06/20 02:28:51;;;;;;;10.14;9.24;;;;;;;22.76;77.05;98789.97;7250009;40;20391;31
2023/06/20 02:34:26;;;;;;;9.75;8.85;;;;;;;22.56;77.84;98781.41;7273847;39;20313;31
2023/06/20 02:39:47;;;;;;;12.37;8.93;;;;;;;22.50;77.46;98785.19;7220164;40;20245;31
2023/06/20 02:45:24;;;;;;;9.90;8.90;;;;;;;22.53;77.56;98760.78;7239851;40;20413;31
2023/06/20 02:51:00;;;;;;;8.55;7.75;;;;;;;22.45;78.48;98758.47;7217590;40;20258;31
2023/06/20 02:56:35;;;;;;;8.55;7.85;;;;;;;22.45;77.69;98753.81;7201291;40;20253;31
2023/06/20 03:02:11;;;;;;;8.98;8.02;;;;;;;22.36;77.21;98755.34;7220683;40;20348;31
2023/06/20 03:07:42;;;;;;;8.84;8.06;;;;;;;22.47;76.72;98775.50;7246697;40;20253;31
2023/06/20 03:13:17;;;;;;;8.75;7.95;;;;;;;22.48;76.30;98779.94;7216072;40;20384;31
2023/06/20 03:18:53;;;;;;;11.25;9.20;;;;;;;22.36;76.31;98787.44;7198175;40;20257;31
2023/06/20 03:24:13;;;;;;;8.30;7.55;;;;;;;22.29;76.09;98792.31;7181236;40;20351;31
2023/06/20 03:29:32;;;;;;;9.63;8.73;;;;;;;22.18;76.41;98785.81;7197953;40;20245;31
2023/06/20 03:35:06;;;;;;;9.15;8.32;;;;;;;22.13;76.90;98791.22;7258363;40;20235;31
2023/06/20 03:40:26;;;;;;;9.15;7.87;;;;;;;22.23;76.25;98785.91;7247959;40;20272;31
2023/06/20 03:51:07;;;;;;;7.90;7.20;;;;;;;22.20;76.10;98785.56;7274806;39;20292;31
2023/06/20 04:01:32;;;;;;;8.30;7.50;;;;;;;22.14;75.11;98787.41;7306456;39;20259;31
2023/06/20 04:07:08;;;;;;;9.30;8.10;;;;;;;22.03;75.51;98788.31;7316271;39;20245;31
2023/06/20 04:12:27;;;;;;;10.20;8.17;;;;;;;22.07;75.02;98791.41;7291689;39;20260;31
2023/06/20 04:17:51;;;;;;;9.70;8.10;;;;;;;22.03;74.96;98789.16;7240532;40;20396;31
2023/06/20 04:28:32;;;;;;;9.48;8.55;;;;;;;21.90;76.29;98794.09;7275116;39;20265;31
2023/06/20 04:38:54;;;;;;;9.82;8.95;;;;;;;21.92;76.36;98784.59;7297370;39;20400;31
2023/06/20 04:44:30;;;;;;;8.93;8.10;;;;;;;21.96;76.54;98773.94;7277224;40;20801;31
2023/06/20 04:50:05;;;;;;;9.95;8.95;;;;;;;22.00;77.00;98783.34;7259459;40;20310;31
2023/06/20 04:55:25;;;;;;;9.45;8.55;;;;;;;22.07;77.13;98778.53;7275795;40;21235;31
2023/06/20 05:06:06;;;;;;;9.45;8.65;;;;;;;22.28;77.39;98793.38;7283023;39;20376;31
2023/06/20 05:16:29;;;;;;;11.12;10.13;;;;;;;22.53;77.50;98787.41;7317886;39;20407;31
2023/06/20 05:22:06;;;;;;;12.05;10.85;;;;;;;22.61;77.42;98790.53;7339271;39;20345;31
2023/06/20 05:27:42;;;;;;;11.50;10.43;;;;;;;22.74;77.21;98792.13;7279574;40;20257;31
2023/06/20 05:33:02;;;;;;;12.00;10.80;;;;;;;22.85;76.89;98797.50;7255575;40;20747;31
2023/06/20 05:38:37;;;;;;;12.40;11.10;;;;;;;22.88;78.13;98790.66;7277674;40;20857;31
2023/06/20 05:43:58;;;;;;;11.57;10.55;;;;;;;23.01;77.78;98801.25;7274360;40;20240;31
2023/06/20 05:49:34;;;;;;;13.35;11.60;;;;;;;23.14;78.66;98794.53;7301604;39;20240;31
2023/06/20 05:55:10;;;;;;;12.65;11.45;;;;;;;23.28;77.46;98793.06;7328521;39;20557;31
2023/06/20 06:00:31;;;;;;;12.65;11.38;;;;;;;23.44;78.13;98788.56;7259149;40;20708;31
2023/06/20 06:05:52;;;;;;;14.85;13.40;;;;;;;23.50;78.22;98787.53;7257342;40;20362;31
2023/06/20 06:11:27;;;;;;;13.43;12.13;;;;;;;23.60;77.23;98796.72;7279201;40;20881;31
2023/06/20 06:17:02;;;;;;;12.85;11.65;;;;;;;23.75;77.62;98802.34;7274810;39;20756;31
2023/06/20 06:22:23;;;;;;;13.20;11.60;;;;;;;23.92;76.87;98799.47;7312768;39;20740;31
2023/06/20 06:33:07;;;;;;;14.12;11.48;;;;;;;24.11;76.58;98795.22;7293189;39;20531;31
2023/06/20 06:43:43;;;;;;;12.98;11.68;;;;;;;24.39;74.31;98812.53;7276195;39;20358;31
2023/06/20 06:54:23;;;;;;;12.80;11.50;;;;;;;24.63;72.65;98808.25;7277176;40;20462;31
2023/06/20 07:05:04;;;;;;;12.70;11.10;;;;;;;24.92;71.29;98801.31;7292826;39;20312;31
2023/06/20 07:10:38;;;;;;;12.30;11.10;;;;;;;25.14;71.51;98798.34;7338279;39;20241;31
2023/06/20 07:15:59;;;;;;;13.00;11.77;;;;;;;25.35;71.06;98804.75;7318212;39;20885;31
2023/06/20 07:21:20;;;;;;;12.50;11.35;;;;;;;25.38;70.11;98810.53;7278767;40;20272;31
2023/06/20 07:26:57;;;;;;;12.23;10.93;;;;;;;25.44;70.48;98815.00;7241369;40;20455;31
2023/06/20 07:32:18;;;;;;;11.88;10.60;;;;;;;25.60;69.16;98821.41;7266585;40;20862;31
2023/06/20 07:37:52;;;;;;;12.92;10.78;;;;;;;25.62;68.33;98819.19;7266302;40;20267;31
2023/06/20 07:43:29;;;;;;;11.93;10.73;;;;;;;25.66;68.74;98822.25;7248064;40;20241;31
2023/06/20 07:48:50;;;;;;;11.20;10.00;;;;;;;25.86;68.18;98828.59;7257276;40;20860;31
2023/06/20 07:54:09;;;;;;;11.18;10.15;;;;;;;26.10;67.48;98822.56;7257300;40;20326;31
2023/06/20 07:59:43;;;;;;;10.85;9.63;;;;;;;26.14;67.26;98823.66;7274816;40;20695;31
2023/06/20 08:05:18;;;;;;;10.82;9.73;;;;;;;26.29;65.95;98823.66;7299696;39;20298;31
2023/06/20 08:15:58;;;;;;;11.60;9.90;;;;;;;26.69;64.95;98817.22;7334102;39;20315;31
2023/06/20 08:26:22;;;;;;;10.95;9.85;;;;;;;26.55;65.80;98814.22;7296498;40;20473;31
2023/06/20 08:31:59;;;;;;;12.18;10.35;;;;;;;26.58;65.08;98815.62;7278470;40;20249;31
2023/06/20 08:42:24;;;;;;;11.00;10.00;;;;;;;27.07;63.55;98811.06;7339677;39;20272;31
2023/06/20 08:48:01;;;;;;;12.10;10.90;;;;;;;27.24;62.82;98805.19;7365882;39;20241;31
2023/06/20 08:53:36;;;;;;;11.05;9.95;;;;;;;27.51;62.61;98794.53;7322796;39;20247;31
2023/06/20 08:59:11;;;;;;;11.45;10.25;;;;;;;27.76;62.23;98799.91;7316732;39;20629;31
2023/06/20 09:04:45;;;;;;;11.00;9.83;;;;;;;27.85;59.93;98790.97;7267171;40;20455;31
2023/06/20 09:10:21;;;;;;;10.05;9.15;;;;;;;28.03;60.58;98802.19;7227098;40;20339;31
2023/06/20 09:15:41;;;;;;;12.10;9.82;;;;;;;28.24;59.49;98813.94;7191262;40;20435;31
2023/06/20 09:21:12;;;;;;;10.12;9.13;;;;;;;28.12;58.89;98802.41;7034870;40;21212;31
2023/06/20 09:26:47;;;;;;;10.24;9.30;;;;;;;28.36;58.80;98797.75;7137920;40;20648;31
2023/06/20 09:32:23;;;;;;;11.53;9.40;;;;;;;28.45;57.55;98804.31;7205986;40;20277;31
2023/06/20 09:37:59;;;;;;;9.94;9.04;;;;;;;28.73;57.58;98793.53;7208287;40;20893;31
2023/06/20 09:43:34;;;;;;;10.80;9.52;;;;;;;28.68;57.92;98786.03;7168186;40;20575;31
2023/06/20 09:49:09;;;;;;;10.86;8.60;;;;;;;28.89;56.48;98787.50;7167092;40;20354;31
2023/06/20 09:54:43;;;;;;;11.40;9.07;;;;;;;29.16;55.11;98770.22;7131916;40;20669;31
2023/06/20 10:05:20;;;;;;;8.65;7.10;;;;;;;29.64;53.55;98786.78;7193695;40;20282;31
2023/06/20 10:10:56;;;;;;;8.15;7.35;;;;;;;29.75;53.28;98788.28;7261832;40;20704;31
2023/06/20 10:16:31;;;;;;;7.60;6.90;;;;;;;29.89;51.44;98794.75;7220170;40;20277;31
2023/06/20 10:22:09;;;;;;;7.65;6.85;;;;;;;29.93;51.22;98795.78;7198627;40;20545;31
2023/06/20 10:27:45;;;;;;;5.72;4.56;;;;;;;29.89;47.48;98783.63;7208730;40;20553;31
2023/06/20 10:33:20;;;;;;;6.62;4.70;;;;;;;30.06;45.84;98783.09;7191463;40;20755;31
2023/06/20 10:38:56;;;;;;;4.90;4.50;;;;;;;30.07;46.40;98765.25;7228586;40;20700;31
2023/06/20 10:44:29;;;;;;;5.80;4.90;;;;;;;30.18;45.02;98753.69;7242465;40;20787;31
2023/06/20 10:50:04;;;;;;;7.03;5.30;;;;;;;30.43;45.68;98761.53;7236963;40;20780;31
2023/06/20 11:00:44;;;;;;;6.00;5.40;;;;;;;30.67;45.72;98755.81;7246489;40;20272;31
2023/06/20 11:11:23;;;;;;;5.75;5.15;;;;;;;30.73;43.53;98759.31;7259671;40;20291;31
2023/06/20 11:16:59;;;;;;;5.45;4.95;;;;;;;30.94;43.19;98760.56;7255631;39;20239;31
2023/06/20 11:22:19;;;;;;;4.70;4.30;;;;;;;31.07;41.53;98758.94;7242737;40;20573;31
2023/06/20 11:27:53;;;;;;;5.20;4.70;;;;;;;31.08;41.34;98772.53;7237217;40;20324;31
2023/06/20 11:33:29;;;;;;;5.75;5.25;;;;;;;31.08;41.78;98758.63;7267607;39;20257;31
2023/06/20 11:39:05;;;;;;;6.95;4.95;;;;;;;31.19;42.23;98745.31;7272423;39;20673;31
2023/06/20 11:44:40;;;;;;;7.00;4.90;;;;;;;31.22;41.43;98737.16;7277520;39;20665;31
2023/06/20 11:50:16;;;;;;;7.70;5.20;;;;;;;31.32;41.15;98741.66;7256072;40;20872;31
2023/06/20 11:55:58;;;;;;;5.68;5.07;;;;;;;31.15;41.30;98731.19;7270894;39;20325;31
2023/06/20 12:01:34;;;;;;;6.95;5.40;;;;;;;31.13;41.35;98725.09;7222352;40;20705;31
2023/06/20 12:07:20;;;;;;;8.95;5.20;;;;;;;31.25;41.20;98718.97;7179110;40;20972;31
2023/06/20 12:12:54;;;;;;;5.20;4.70;;;;;;;31.43;39.91;98717.16;7120642;40;20617;31
2023/06/20 12:18:29;;;;;;;5.32;4.88;;;;;;;31.55;40.51;98715.50;7151127;40;20722;31
2023/06/20 12:24:05;;;;;;;5.68;4.96;;;;;;;31.69;41.19;98693.13;7218556;40;20555;31
2023/06/20 12:29:26;;;;;;;6.07;4.80;;;;;;;31.81;40.73;98679.47;7204976;40;20740;31
2023/06/20 12:34:46;;;;;;;5.55;5.00;;;;;;;31.77;40.36;98689.59;7172686;40;20274;31
2023/06/20 12:45:26;;;;;;;5.48;4.98;;;;;;;32.05;39.33;98695.84;7251460;40;20265;31
2023/06/20 12:51:01;;;;;;;6.05;4.97;;;;;;;32.04;39.16;98683.84;7266973;40;21920;31
2023/06/20 12:56:36;;;;;;;6.15;4.70;;;;;;;32.13;38.90;98681.97;7262387;40;20562;31
2023/06/20 13:02:12;;;;;;;8.50;5.65;;;;;;;32.16;38.49;98674.94;7302150;39;20750;31
2023/06/20 13:07:33;;;;;;;7.54;5.30;;;;;;;31.98;37.68;98673.16;7227546;40;20699;31
2023/06/20 13:13:08;;;;;;;5.65;4.90;;;;;;;32.08;38.78;98672.88;7237653;40;20284;31
2023/06/20 13:18:44;;;;;;;6.28;5.60;;;;;;;32.38;37.72;98672.09;7261509;40;20842;31
2023/06/20 13:24:06;;;;;;;5.60;5.10;;;;;;;32.52;38.37;98669.16;7240133;40;20755;31
2023/06/20 13:29:26;;;;;;;8.63;5.15;;;;;;;32.60;38.09;98665.59;7265269;40;20374;31
2023/06/20 13:35:03;;;;;;;7.14;5.00;;;;;;;32.58;38.38;98659.50;7318271;39;20260;31
2023/06/20 13:40:30;;;;;;;11.93;5.70;;;;;;;32.59;38.12;98669.53;7283857;39;20240;31
2023/06/20 13:45:45;;;;;;;6.62;5.28;;;;;;;32.45;38.24;98666.03;7279584;40;20268;31
2023/06/20 13:51:20;;;;;;;5.85;5.25;;;;;;;32.49;39.07;98669.81;7295819;39;20609;31
2023/06/20 14:02:01;;;;;;;6.57;5.23;;;;;;;31.97;37.83;98652.81;7276575;39;20456;31
2023/06/20 14:07:37;;;;;;;7.70;5.15;;;;;;;31.87;38.60;98655.06;7261280;40;20623;31
2023/06/20 14:13:12;;;;;;;6.65;5.80;;;;;;;31.97;38.36;98650.03;7274085;39;20601;31
2023/06/20 14:18:48;;;;;;;5.78;5.15;;;;;;;32.13;38.61;98637.34;7258598;40;20327;31
2023/06/20 14:24:25;;;;;;;7.93;5.18;;;;;;;32.11;37.65;98622.09;7290267;40;20429;31
2023/06/20 14:29:45;;;;;;;5.68;4.85;;;;;;;32.03;37.69;98640.38;7247408;40;20605;31
2023/06/20 14:40:24;;;;;;;6.37;5.15;;;;;;;32.00;37.10;98631.81;7235849;40;20273;31
2023/06/20 14:51:03;;;;;;;7.57;4.68;;;;;;;32.03;37.28;98623.63;7319036;39;20390;31
2023/06/20 14:56:39;;;;;;;8.10;4.70;;;;;;;31.95;37.07;98624.41;7276665;39;20543;31
2023/06/20 15:02:14;;;;;;;8.14;4.74;;;;;;;31.75;37.25;98619.41;7270901;40;20870;31
2023/06/20 15:07:34;;;;;;;7.10;4.70;;;;;;;31.77;37.16;98611.53;7257641;40;20676;31
2023/06/20 15:13:11;;;;;;;7.08;4.70;;;;;;;31.94;37.06;98599.66;7277738;39;20634;31
2023/06/20 15:18:47;;;;;;;11.55;5.10;;;;;;;32.21;37.19;98596.66;7212116;40;20238;31
2023/06/20 15:24:23;;;;;;;7.32;5.15;;;;;;;32.36;37.10;98587.03;7237068;40;20271;31
2023/06/20 15:30:00;;;;;;;6.17;5.40;;;;;;;32.45;36.19;98583.13;7235524;40;20586;31
2023/06/20 15:35:35;;;;;;;7.90;5.15;;;;;;;32.41;36.44;98575.75;7239500;40;20653;31
2023/06/20 15:40:55;;;;;;;8.07;5.10;;;;;;;32.63;35.93;98581.22;7237088;40;21884;31
2023/06/20 15:46:31;;;;;;;11.40;5.15;;;;;;;32.47;36.23;98580.03;7236061;40;20656;31
2023/06/20 15:51:51;;;;;;;7.44;4.82;;;;;;;32.40;36.76;98574.09;7186564;40;20689;31
2023/06/20 15:57:12;;;;;;;5.45;4.95;;;;;;;32.57;37.41;98576.91;7211866;40;20249;31
2023/06/20 16:02:49;;;;;;;7.35;5.07;;;;;;;32.60;36.95;98574.28;7245071;40;20264;31
2023/06/20 16:08:21;;;;;;;8.40;5.10;;;;;;;32.61;36.55;98566.72;7038695;40;20630;31
2023/06/20 16:13:56;;;;;;;7.70;5.45;;;;;;;32.40;37.20;98562.94;7257503;40;20261;31
2023/06/20 16:19:33;;;;;;;5.94;4.72;;;;;;;32.12;37.16;98557.59;7155935;40;20309;31
2023/06/20 16:25:08;;;;;;;8.10;4.90;;;;;;;31.96;37.44;98544.38;7175746;40;20548;31
2023/06/20 16:30:28;;;;;;;7.87;4.85;;;;;;;31.96;37.55;98542.41;7175431;40;20448;31
2023/06/20 16:36:05;;;;;;;7.62;5.20;;;;;;;31.81;38.30;98555.97;7220866;40;20257;31
2023/06/20 16:41:41;;;;;;;8.20;5.20;;;;;;;31.61;38.26;98557.34;7239570;40;20268;31
2023/06/20 16:47:14;;;;;;;10.18;5.82;;;;;;;31.62;38.23;98559.00;7233637;40;20509;31
2023/06/20 16:52:49;;;;;;;9.17;5.07;;;;;;;31.57;39.49;98554.38;7242326;40;20415;31
2023/06/20 16:58:09;;;;;;;8.80;4.78;;;;;;;31.60;39.03;98538.97;7217663;40;20261;31
2023/06/20 17:03:44;;;;;;;6.96;5.22;;;;;;;31.62;39.35;98533.91;7238331;40;20245;31
2023/06/20 17:09:21;;;;;;;6.78;4.60;;;;;;;31.55;39.58;98537.13;7256372;40;20253;31
2023/06/20 17:14:57;;;;;;;6.72;5.12;;;;;;;31.62;39.63;98553.41;7227521;40;20337;31
2023/06/20 17:20:16;;;;;;;8.00;5.30;;;;;;;31.40;43.01;98567.34;7198723;40;21324;31
2023/06/20 17:25:53;;;;;;;7.80;5.60;;;;;;;31.06;44.49;98613.31;7178424;40;20373;31
2023/06/20 17:31:28;;;;;;;9.00;6.05;;;;;;;30.71;47.37;98639.97;7238536;40;21506;31
2023/06/20 17:36:48;;;;;;;9.20;5.90;;;;;;;30.24;48.20;98645.91;7264692;39;20280;31
2023/06/20 17:42:24;;;;;;;7.50;5.45;;;;;;;29.85;48.48;98618.56;7274740;39;20418;31
2023/06/20 17:53:04;;;;;;;9.35;6.07;;;;;;;29.31;50.45;98620.06;7264994;40;20280;31
2023/06/20 17:58:41;;;;;;;10.68;6.04;;;;;;;28.84;50.99;98600.78;7275250;39;20291;31
2023/06/20 18:09:20;;;;;;;9.68;5.55;;;;;;;28.75;50.82;98605.38;7261505;40;20273;31
2023/06/20 18:14:58;;;;;;;9.70;5.50;;;;;;;28.74;50.13;98598.19;7297877;39;20379;31
2023/06/20 18:20:32;;;;;;;10.27;5.25;;;;;;;28.66;50.60;98616.28;7241797;40;20300;31
2023/06/20 18:26:07;;;;;;;7.22;4.84;;;;;;;28.52;50.85;98621.72;7199394;40;20242;31
2023/06/20 18:31:44;;;;;;;6.40;4.95;;;;;;;28.29;50.45;98632.88;7248394;40;20369;31
2023/06/20 18:37:19;;;;;;;10.55;5.60;;;;;;;28.08;51.82;98682.13;7229681;40;20433;31
2023/06/20 18:42:54;;;;;;;12.37;6.90;;;;;;;27.81;59.44;98698.47;7220280;40;20426;31
2023/06/20 18:48:30;;;;;;;10.87;7.03;;;;;;;27.37;60.31;98682.75;7200504;40;21483;31
2023/06/20 18:54:05;;;;;;;9.07;6.07;;;;;;;27.18;60.00;98687.28;7206189;40;20266;31
2023/06/20 18:59:41;;;;;;;8.68;5.97;;;;;;;27.07;59.61;98663.59;7260326;40;20272;31
2023/06/20 19:05:18;;;;;;;9.88;6.30;;;;;;;26.93;60.34;98660.63;7223200;40;20318;31
2023/06/20 19:10:40;;;;;;;9.05;6.62;;;;;;;26.96;59.55;98659.22;7215234;40;20246;31
2023/06/20 19:16:15;;;;;;;12.00;6.67;;;;;;;26.97;60.28;98663.62;7197184;40;20257;31
2023/06/20 19:21:50;;;;;;;14.43;6.28;;;;;;;26.80;59.84;98699.94;7235173;40;20382;31
2023/06/20 19:27:25;;;;;;;9.57;6.27;;;;;;;26.72;59.73;98690.28;7173287;40;20273;31
2023/06/20 19:33:01;;;;;;;9.73;6.40;;;;;;;26.54;61.96;98699.22;7184184;40;21442;31
2023/06/20 19:38:37;;;;;;;9.07;6.83;;;;;;;26.34;62.14;98719.47;7185591;40;20274;31
2023/06/20 19:44:16;;;;;;;8.27;6.20;;;;;;;26.50;60.94;98731.31;7196005;40;20304;31
2023/06/20 19:49:34;;;;;;;8.20;6.27;;;;;;;26.63;60.87;98760.31;7217654;40;20366;31
2023/06/20 20:00:27;;;;;;;11.80;6.75;;;;;;;26.23;63.53;98761.22;7290180;39;20272;31
2023/06/20 20:05:48;;;;;;;8.15;6.90;;;;;;;26.06;62.63;98777.25;7250791;39;20234;31
2023/06/20 20:11:22;;;;;;;7.68;6.37;;;;;;;26.11;63.10;98783.56;7319887;39;20310;31
2023/06/20 20:16:59;;;;;;;7.20;6.50;;;;;;;26.15;62.30;98783.88;7261360;40;20316;31
2023/06/20 20:22:35;;;;;;;8.90;6.80;;;;;;;26.15;62.39;98792.16;7224096;40;20335;31
2023/06/20 20:28:11;;;;;;;9.68;7.05;;;;;;;26.10;62.37;98793.00;7173483;40;20351;31
2023/06/20 20:38:50;;;;;;;6.90;6.20;;;;;;;26.02;63.55;98794.34;7235008;40;20387;31
2023/06/20 20:49:30;;;;;;;11.30;6.50;;;;;;;26.10;62.66;98797.69;7281045;39;20264;31
2023/06/20 21:00:11;;;;;;;7.87;6.78;;;;;;;26.01;62.61;98814.00;7282889;39;20283;31
2023/06/20 21:05:46;;;;;;;7.28;6.05;;;;;;;25.93;63.10;98831.12;7280608;40;20331;31
2023/06/20 21:11:21;;;;;;;8.53;6.40;;;;;;;25.79;63.24;98830.81;7249808;39;20283;31
2023/06/20 21:16:58;;;;;;;7.88;6.40;;;;;;;25.74;63.35;98841.84;7293407;39;20373;31
2023/06/20 21:22:18;;;;;;;8.87;6.43;;;;;;;25.73;63.74;98839.34;7258301;40;20261;31
2023/06/20 21:27:38;;;;;;;7.37;6.53;;;;;;;25.69;63.68;98850.13;7306725;39;20272;31
2023/06/20 21:33:14;;;;;;;8.30;6.75;;;;;;;25.71;63.48;98858.97;7329716;39;20276;31
2023/06/20 21:43:51;;;;;;;7.72;6.43;;;;;;;25.77;62.77;98868.06;7281298;40;20907;31
2023/06/20 21:49:27;;;;;;;10.10;7.30;;;;;;;25.51;63.99;98864.41;7254658;40;21446;31
2023/06/20 22:00:07;;;;;;;8.82;6.55;;;;;;;25.45;64.56;98866.31;7276734;39;20881;31
2023/06/20 22:05:43;;;;;;;7.96;6.42;;;;;;;25.37;63.65;98863.25;7245326;40;20261;31
2023/06/20 22:11:18;;;;;;;7.76;6.68;;;;;;;25.19;63.56;98869.28;7292826;39;20253;31
2023/06/20 22:16:51;;;;;;;8.32;7.18;;;;;;;25.04;63.90;98859.81;7249641;40;20269;31
2023/06/20 22:22:27;;;;;;;7.50;6.40;;;;;;;24.95;64.35;98866.94;7204845;40;20281;31
2023/06/20 22:27:47;;;;;;;7.20;6.45;;;;;;;24.85;63.74;98860.50;7178343;40;20599;31
2023/06/20 22:33:24;;;;;;;7.80;5.85;;;;;;;24.79;63.49;98854.16;7207959;40;20738;31
2023/06/20 22:38:58;;;;;;;8.73;5.60;;;;;;;24.76;62.46;98873.97;7185992;40;20317;31
2023/06/20 22:44:33;;;;;;;5.95;4.65;;;;;;;24.79;61.61;98851.38;7223603;40;20276;31
2023/06/20 22:49:53;;;;;;;5.73;5.07;;;;;;;24.66;60.71;98854.62;7175388;40;20436;31
2023/06/20 23:00:35;;;;;;;5.55;4.85;;;;;;;24.41;62.05;98868.19;7214747;40;20279;31
2023/06/20 23:06:10;;;;;;;7.13;4.90;;;;;;;24.27;62.02;98872.50;7270702;40;20283;31
2023/06/20 23:11:43;;;;;;;6.32;4.60;;;;;;;24.44;60.31;98864.94;7054779;40;21325;31
2023/06/20 23:17:20;;;;;;;5.55;4.40;;;;;;;24.51;60.24;98876.56;7239187;40;20268;31
2023/06/20 23:22:57;;;;;;;6.12;4.34;;;;;;;24.52;59.57;98878.22;7238125;40;20425;31
2023/06/20 23:28:28;;;;;;;6.97;4.80;;;;;;;24.55;58.26;98883.19;7210293;40;20262;31
2023/06/20 23:34:05;;;;;;;4.75;3.95;;;;;;;24.57;57.50;98901.13;7215708;40;20343;31
2023/06/20 23:39:26;;;;;;;7.62;4.72;;;;;;;24.57;58.15;98903.06;7196973;40;20443;31
2023/06/20 23:44:46;;;;;;;7.03;4.95;;;;;;;24.50;57.46;98896.94;7213210;40;20406;31
2023/06/20 23:50:23;;;;;;;5.73;4.50;;;;;;;24.45;57.49;98899.66;7236514;40;20242;31
2023/06/20 23:55:59;;;;;;;5.30;4.00;;;;;;;24.46;57.14;98895.81;7211475;40;20380;31
